createdAt,value
2018-09-05T00:02:12.095Z,102361.53
2018-09-05T00:04:40.782Z,102358.20
2018-09-05T00:07:09.475Z,102358.36
2018-09-05T00:09:38.157Z,102355.06
2018-09-05T00:12:07.048Z,102355.22
2018-09-05T00:14:35.844Z,102358.48
2018-09-05T00:17:04.564Z,102355.25
2018-09-05T00:19:33.235Z,102352.77
2018-09-05T00:22:01.922Z,102356.48
2018-09-05T00:24:30.587Z,102357.66
2018-09-05T00:26:59.279Z,102357.16
2018-09-05T00:29:27.943Z,102355.60
2018-09-05T00:31:56.619Z,102361.95
2018-09-05T00:34:25.323Z,102364.05
2018-09-05T00:36:54.069Z,102359.42
2018-09-05T00:39:22.781Z,102365.46
2018-09-05T00:41:51.481Z,102366.63
2018-09-05T00:44:20.208Z,102358.58
2018-09-05T00:46:48.885Z,102365.01
2018-09-05T00:49:18.176Z,102355.63
2018-09-05T00:51:46.847Z,102356.24
2018-09-05T00:54:15.507Z,102359.98
2018-09-05T00:56:44.219Z,102354.46
2018-09-05T00:59:12.908Z,102362.05
2018-09-05T01:01:41.725Z,102361.84
2018-09-05T01:04:10.420Z,102359.50
2018-09-05T01:06:39.077Z,102365.70
2018-09-05T01:09:08.404Z,102363.05
2018-09-05T01:11:37.286Z,102363.80
2018-09-05T01:14:06.132Z,102362.88
2018-09-05T01:16:34.920Z,102365.61
2018-09-05T01:19:03.644Z,102360.80
2018-09-05T01:21:32.276Z,102362.98
2018-09-05T01:24:00.983Z,102365.70
2018-09-05T01:26:29.681Z,102361.35
2018-09-05T01:28:58.346Z,102352.28
2018-09-05T01:31:27.029Z,102360.03
2018-09-05T01:33:55.714Z,102364.07
2018-09-05T01:36:24.419Z,102356.17
2018-09-05T01:38:53.135Z,102352.69
2018-09-05T01:41:21.897Z,102352.73
2018-09-05T01:43:50.551Z,102347.94
2018-09-05T01:46:19.312Z,102340.67
2018-09-05T01:48:47.990Z,102346.30
2018-09-05T01:51:16.691Z,102340.67
2018-09-05T01:53:45.405Z,102340.22
2018-09-05T01:56:14.141Z,102334.46
2018-09-05T01:58:42.864Z,102334.09
2018-09-05T02:01:11.540Z,102333.64
2018-09-05T02:03:40.301Z,102333.23
2018-09-05T02:06:08.980Z,102330.66
2018-09-05T02:08:37.679Z,102333.78
2018-09-05T02:11:06.349Z,102333.78
2018-09-05T02:13:35.020Z,102329.83
2018-09-05T02:16:03.719Z,102330.66
2018-09-05T02:18:32.456Z,102333.30
2018-09-05T02:21:01.112Z,102335.55
2018-09-05T02:23:29.816Z,102335.55
2018-09-05T02:25:58.584Z,102331.15
2018-09-05T02:28:27.248Z,102329.43
2018-09-05T02:30:55.952Z,102330.29
2018-09-05T02:33:24.629Z,102329.34
2018-09-05T02:35:53.320Z,102326.25
2018-09-05T02:38:22.029Z,102317.36
2018-09-05T02:40:50.785Z,102313.95
2018-09-05T02:43:24.688Z,102314.98
2018-09-05T02:45:53.815Z,102304.51
2018-09-05T02:48:22.952Z,102304.45
2018-09-05T02:50:51.648Z,102306.48
2018-09-05T02:53:20.356Z,102309.02
2018-09-05T02:55:54.181Z,102305.93
2018-09-05T02:58:22.871Z,102301.52
2018-09-05T03:00:51.568Z,102304.98
2018-09-05T03:03:20.284Z,102310.25
2018-09-05T03:05:48.977Z,102310.25
2018-09-05T03:08:17.655Z,102315.14
2018-09-05T03:10:46.332Z,102315.30
2018-09-05T03:13:15.037Z,102311.09
2018-09-05T03:15:43.711Z,102313.90
2018-09-05T03:18:12.784Z,102310.09
2018-09-05T03:20:41.660Z,102310.16
2018-09-05T03:23:10.617Z,102311.30
2018-09-05T03:25:39.475Z,102305.98
2018-09-05T03:28:08.730Z,102315.10
2018-09-05T03:30:37.595Z,102307.52
2018-09-05T03:33:06.459Z,102321.53
2018-09-05T03:35:35.300Z,102317.98
2018-09-05T03:38:04.184Z,102318.36
2018-09-05T03:40:32.855Z,102316.42
2018-09-05T03:43:01.590Z,102331.15
2018-09-05T03:45:30.241Z,102329.98
2018-09-05T03:47:58.936Z,102332.20
2018-09-05T03:50:27.592Z,102337.47
2018-09-05T03:52:56.261Z,102336.56
2018-09-05T03:55:24.930Z,102330.52
2018-09-05T03:57:53.616Z,102330.52
2018-09-05T04:00:22.410Z,102329.13
2018-09-05T04:02:51.096Z,102326.40
2018-09-05T04:05:19.883Z,102322.39
2018-09-05T04:07:48.575Z,102324.17
2018-09-05T04:10:17.308Z,102326.52
2018-09-05T04:12:45.968Z,102328.14
2018-09-05T04:15:14.640Z,102341.21
2018-09-05T04:17:43.311Z,102336.80
2018-09-05T04:20:12.025Z,102335.95
2018-09-05T04:22:40.724Z,102332.80
2018-09-05T04:25:09.471Z,102333.05
2018-09-05T04:27:38.696Z,102336.09
2018-09-05T04:30:07.596Z,102335.55
2018-09-05T04:32:36.280Z,102329.22
2018-09-05T04:35:05.025Z,102339.40
2018-09-05T04:37:33.688Z,102342.44
2018-09-05T04:40:02.364Z,102339.66
2018-09-05T04:42:31.233Z,102341.89
2018-09-05T04:44:59.892Z,102349.73
2018-09-05T04:47:28.590Z,102348.41
2018-09-05T04:49:57.273Z,102352.27
2018-09-05T04:52:25.967Z,102354.05
2018-09-05T04:54:54.648Z,102354.99
2018-09-05T04:57:23.324Z,102353.22
2018-09-05T04:59:52.055Z,102356.31
2018-09-05T05:02:20.817Z,102352.97
2018-09-05T05:04:49.547Z,102350.42
2018-09-05T05:07:18.246Z,102362.89
2018-09-05T05:09:46.922Z,102357.62
2018-09-05T05:12:15.615Z,102365.98
2018-09-05T05:14:44.272Z,102366.84
2018-09-05T05:17:12.919Z,102367.75
2018-09-05T05:19:41.610Z,102374.88
2018-09-05T05:22:10.350Z,102374.48
2018-09-05T05:24:39.030Z,102372.80
2018-09-05T05:27:07.714Z,102374.62
2018-09-05T05:29:36.403Z,102372.80
2018-09-05T05:32:05.072Z,102373.80
2018-09-05T05:34:33.837Z,102364.98
2018-09-05T05:37:02.594Z,102373.34
2018-09-05T05:39:31.435Z,102380.78
2018-09-05T05:42:00.151Z,102381.92
2018-09-05T05:44:28.856Z,102383.38
2018-09-05T05:46:57.620Z,102388.92
2018-09-05T05:49:26.326Z,102391.33
2018-09-05T05:51:55.044Z,102396.59
2018-09-05T05:54:23.755Z,102395.47
2018-09-05T05:56:52.444Z,102388.34
2018-09-05T05:59:21.148Z,102395.45
2018-09-05T06:01:49.888Z,102389.70
2018-09-05T06:04:18.577Z,102393.23
2018-09-05T06:06:47.307Z,102396.55
2018-09-05T06:09:16.008Z,102395.83
2018-09-05T06:11:44.781Z,102386.89
2018-09-05T06:14:13.444Z,102402.16
2018-09-05T06:16:42.126Z,102399.05
2018-09-05T06:19:10.828Z,102399.05
2018-09-05T06:21:39.647Z,102399.17
2018-09-05T06:24:08.355Z,102396.95
2018-09-05T06:26:37.056Z,102409.05
2018-09-05T06:29:05.970Z,102409.56
2018-09-05T06:31:34.761Z,102408.78
2018-09-05T06:34:03.523Z,102411.55
2018-09-05T06:36:32.253Z,102420.70
2018-09-05T06:39:01.069Z,102428.45
2018-09-05T06:41:30.148Z,102424.89
2018-09-05T06:43:58.947Z,102425.74
2018-09-05T06:46:27.699Z,102426.60
2018-09-05T06:48:56.428Z,102421.66
2018-09-05T06:51:25.181Z,102430.33
2018-09-05T06:53:53.892Z,102434.59
2018-09-05T06:56:22.640Z,102441.95
2018-09-05T06:58:51.523Z,102440.91
2018-09-05T07:01:20.533Z,102438.59
2018-09-05T07:03:49.329Z,102432.74
2018-09-05T07:06:18.119Z,102439.69
2018-09-05T07:08:46.864Z,102437.38
2018-09-05T07:11:15.613Z,102432.52
2018-09-05T07:13:44.978Z,102431.52
2018-09-05T07:16:14.000Z,102436.33
2018-09-05T07:18:42.764Z,102433.61
2018-09-05T07:21:11.686Z,102432.62
2018-09-05T07:23:40.431Z,102429.08
2018-09-05T07:26:09.520Z,102432.11
2018-09-05T07:28:38.672Z,102426.44
2018-09-05T07:31:07.624Z,102436.75
2018-09-05T07:33:37.011Z,102441.50
2018-09-05T07:36:06.251Z,102437.47
2018-09-05T07:38:35.366Z,102444.45
2018-09-05T07:41:04.217Z,102442.67
2018-09-05T07:43:33.147Z,102440.05
2018-09-05T07:46:02.296Z,102447.39
2018-09-05T07:48:31.208Z,102442.99
2018-09-05T07:51:02.504Z,102440.73
2018-09-05T07:53:31.459Z,102438.91
2018-09-05T07:56:00.924Z,102434.41
2018-09-05T07:58:29.606Z,102438.68
2018-09-05T08:00:58.479Z,102441.62
2018-09-05T08:03:27.511Z,102447.13
2018-09-05T08:05:56.307Z,102446.64
2018-09-05T08:08:25.296Z,102440.06
2018-09-05T08:10:54.089Z,102438.45
2018-09-05T08:13:24.337Z,102446.24
2018-09-05T08:15:53.033Z,102445.38
2018-09-05T08:18:21.804Z,102446.19
2018-09-05T08:20:50.687Z,102448.33
2018-09-05T08:23:19.542Z,102444.38
2018-09-05T08:25:48.275Z,102446.24
2018-09-05T08:28:17.121Z,102446.87
2018-09-05T08:30:45.808Z,102439.92
2018-09-05T08:33:14.493Z,102448.83
2018-09-05T08:35:43.442Z,102440.92
2018-09-05T08:38:11.918Z,102449.63
2018-09-05T08:40:40.545Z,102441.19
2018-09-05T08:43:09.215Z,102440.18
2018-09-05T08:45:38.138Z,102436.32
2018-09-05T08:48:06.846Z,102440.18
2018-09-05T08:50:35.520Z,102438.01
2018-09-05T08:53:04.140Z,102448.11
2018-09-05T08:55:32.794Z,102446.19
2018-09-05T08:58:01.547Z,102443.78
2018-09-05T09:00:30.246Z,102440.77
2018-09-05T09:02:58.972Z,102435.12
2018-09-05T09:05:27.621Z,102431.98
2018-09-05T09:07:56.360Z,102434.53
2018-09-05T09:10:25.118Z,102433.98
2018-09-05T09:12:53.899Z,102437.55
2018-09-05T09:15:22.692Z,102429.95
2018-09-05T09:17:51.357Z,102433.69
2018-09-05T09:20:20.154Z,102433.50
2018-09-05T09:22:48.783Z,102426.79
2018-09-05T09:25:17.461Z,102426.87
2018-09-05T09:27:46.189Z,102427.39
2018-09-05T09:30:14.852Z,102421.59
2018-09-05T09:32:43.533Z,102425.06
2018-09-05T09:35:12.259Z,102429.81
2018-09-05T09:37:40.934Z,102433.37
2018-09-05T09:40:09.636Z,102429.81
2018-09-05T09:42:38.304Z,102429.02
2018-09-05T09:45:07.069Z,102418.46
2018-09-05T09:47:35.721Z,102417.09
2018-09-05T09:50:04.472Z,102409.08
2018-09-05T09:52:37.442Z,102412.87
2018-09-05T09:55:07.957Z,102417.53
2018-09-05T09:57:36.955Z,102420.56
2018-09-05T10:00:06.376Z,102420.88
2018-09-05T10:02:40.058Z,102408.05
2018-09-05T10:05:13.856Z,102410.36
2018-09-05T10:07:47.769Z,102410.27
2018-09-05T10:10:21.947Z,102408.48
2018-09-05T10:12:56.499Z,102409.74
2018-09-05T10:15:30.395Z,102405.69
2018-09-05T10:18:04.196Z,102403.91
2018-09-05T10:20:32.915Z,102408.27
2018-09-05T10:23:01.588Z,102400.41
2018-09-05T10:25:30.269Z,102398.23
2018-09-05T10:27:58.942Z,102398.53
2018-09-05T10:30:27.629Z,102388.38
2018-09-05T10:32:56.301Z,102384.66
2018-09-05T10:35:24.993Z,102387.66
2018-09-05T10:37:53.669Z,102391.05
2018-09-05T10:40:22.403Z,102390.53
2018-09-05T10:42:51.116Z,102391.59
2018-09-05T10:45:19.817Z,102393.14
2018-09-05T10:47:48.599Z,102380.77
2018-09-05T10:50:17.249Z,102385.88
2018-09-05T10:52:45.911Z,102385.72
2018-09-05T10:55:14.609Z,102384.62
2018-09-05T10:57:43.366Z,102387.09
2018-09-05T11:00:12.066Z,102386.14
2018-09-05T11:02:40.735Z,102377.49
2018-09-05T11:05:09.480Z,102382.05
2018-09-05T11:07:38.160Z,102377.38
2018-09-05T11:10:06.925Z,102382.10
2018-09-05T11:12:35.600Z,102385.36
2018-09-05T11:15:04.354Z,102378.02
2018-09-05T11:17:33.034Z,102380.72
2018-09-05T11:20:01.711Z,102376.77
2018-09-05T11:22:30.389Z,102373.86
2018-09-05T11:24:59.077Z,102375.00
2018-09-05T11:27:27.731Z,102378.23
2018-09-05T11:29:56.431Z,102379.20
2018-09-05T11:32:25.124Z,102371.09
2018-09-05T11:34:53.805Z,102366.67
2018-09-05T11:37:22.584Z,102361.97
2018-09-05T11:39:51.258Z,102364.72
2018-09-05T11:42:19.905Z,102363.72
2018-09-05T11:44:48.606Z,102365.59
2018-09-05T11:47:17.282Z,102358.95
2018-09-05T11:49:45.940Z,102358.88
2018-09-05T11:52:14.608Z,102357.34
2018-09-05T11:54:43.284Z,102354.64
2018-09-05T11:57:12.006Z,102353.13
2018-09-05T11:59:40.668Z,102350.20
2018-09-05T12:02:09.400Z,102347.42
2018-09-05T12:04:38.049Z,102341.50
2018-09-05T12:07:06.772Z,102339.48
2018-09-05T12:09:35.416Z,102341.38
2018-09-05T12:12:04.177Z,102344.02
2018-09-05T12:14:32.844Z,102345.39
2018-09-05T12:17:01.576Z,102340.41
2018-09-05T12:19:30.279Z,102346.05
2018-09-05T12:21:58.919Z,102346.73
2018-09-05T12:24:27.664Z,102339.98
2018-09-05T12:26:56.348Z,102345.20
2018-09-05T12:29:25.079Z,102340.81
2018-09-05T12:31:54.460Z,102338.39
2018-09-05T12:34:23.244Z,102338.48
2018-09-05T12:36:51.902Z,102341.02
2018-09-05T12:39:20.595Z,102343.11
2018-09-05T12:41:49.231Z,102341.80
2018-09-05T12:44:17.903Z,102338.11
2018-09-05T12:46:46.600Z,102336.66
2018-09-05T12:49:15.290Z,102336.31
2018-09-05T12:51:43.975Z,102346.77
2018-09-05T12:54:12.731Z,102339.41
2018-09-05T12:56:42.092Z,102341.92
2018-09-05T12:59:10.795Z,102337.55
2018-09-05T13:01:39.509Z,102340.20
2018-09-05T13:04:08.299Z,102340.14
2018-09-05T13:06:37.339Z,102335.89
2018-09-05T13:09:09.581Z,102333.52
2018-09-05T13:11:38.283Z,102340.80
2018-09-05T13:14:06.950Z,102340.97
2018-09-05T13:16:35.608Z,102334.53
2018-09-05T13:19:04.276Z,102327.52
2018-09-05T13:21:32.938Z,102334.80
2018-09-05T13:24:01.614Z,102327.45
2018-09-05T13:26:30.325Z,102330.73
2018-09-05T13:28:59.458Z,102321.83
2018-09-05T13:31:28.133Z,102316.58
2018-09-05T13:33:56.913Z,102312.88
2018-09-05T13:36:25.693Z,102315.62
2018-09-05T13:38:54.575Z,102316.44
2018-09-05T13:41:23.487Z,102308.31
2018-09-05T13:43:52.355Z,102313.58
2018-09-05T13:46:21.310Z,102312.09
2018-09-05T13:48:50.212Z,102309.84
2018-09-05T13:51:19.102Z,102304.30
2018-09-05T13:53:47.828Z,102301.59
2018-09-05T13:56:16.567Z,102296.22
2018-09-05T13:58:45.193Z,102295.57
2018-09-05T14:01:14.750Z,102304.19
2018-09-05T14:03:43.428Z,102298.34
2018-09-05T14:06:12.120Z,102300.42
2018-09-05T14:08:40.780Z,102298.71
2018-09-05T14:11:09.454Z,102294.34
2018-09-05T14:13:38.201Z,102293.31
2018-09-05T14:16:06.920Z,102289.49
2018-09-05T14:18:35.595Z,102280.36
2018-09-05T14:21:04.288Z,102286.77
2018-09-05T14:23:32.998Z,102287.63
2018-09-05T14:26:01.772Z,102283.04
2018-09-05T14:28:30.511Z,102273.44
2018-09-05T14:30:59.269Z,102274.20
2018-09-05T14:33:28.156Z,102268.88
2018-09-05T14:35:56.897Z,102262.95
2018-09-05T14:38:25.565Z,102272.77
2018-09-05T14:40:54.291Z,102267.80
2018-09-05T14:43:22.980Z,102272.84
2018-09-05T14:45:51.679Z,102275.47
2018-09-05T14:48:20.396Z,102275.48
2018-09-05T14:50:49.041Z,102272.47
2018-09-05T14:53:17.726Z,102276.12
2018-09-05T14:55:46.404Z,102273.99
2018-09-05T14:58:15.076Z,102276.89
2018-09-05T15:00:43.780Z,102274.59
2018-09-05T15:03:12.512Z,102279.53
2018-09-05T15:05:41.187Z,102276.10
2018-09-05T15:08:09.890Z,102272.53
2018-09-05T15:10:38.714Z,102272.25
2018-09-05T15:13:07.494Z,102271.77
2018-09-05T15:15:36.255Z,102261.95
2018-09-05T15:18:04.988Z,102266.40
2018-09-05T15:20:33.681Z,102264.77
2018-09-05T15:23:02.368Z,102259.94
2018-09-05T15:25:31.051Z,102262.31
2018-09-05T15:27:59.816Z,102265.84
2018-09-05T15:30:28.485Z,102259.50
2018-09-05T15:32:58.097Z,102263.22
2018-09-05T15:35:26.997Z,102255.15
2018-09-05T15:37:55.864Z,102257.53
2018-09-05T15:40:25.272Z,102259.39
2018-09-05T15:42:54.054Z,102252.39
2018-09-05T15:45:23.064Z,102253.66
2018-09-05T15:47:51.941Z,102250.45
2018-09-05T15:50:20.930Z,102257.04
2018-09-05T15:52:49.716Z,102249.95
2018-09-05T15:55:18.708Z,102244.98
2018-09-05T15:57:47.537Z,102243.40
2018-09-05T16:00:16.863Z,102248.27
2018-09-05T16:02:45.569Z,102247.20
2018-09-05T16:05:14.311Z,102238.94
2018-09-05T16:07:43.171Z,102240.05
2018-09-05T16:10:12.017Z,102236.16
2018-09-05T16:12:40.780Z,102238.45
2018-09-05T16:15:09.663Z,102243.45
2018-09-05T16:17:38.413Z,102234.20
2018-09-05T16:20:07.274Z,102244.39
2018-09-05T16:22:36.059Z,102245.17
2018-09-05T16:25:04.830Z,102233.53
2018-09-05T16:27:33.505Z,102233.16
2018-09-05T16:30:02.191Z,102233.33
2018-09-05T16:32:30.844Z,102239.30
2018-09-05T16:34:59.566Z,102236.27
2018-09-05T16:37:28.254Z,102241.98
2018-09-05T16:39:56.918Z,102241.61
2018-09-05T16:42:25.640Z,102240.66
2018-09-05T16:44:54.404Z,102235.56
2018-09-05T16:47:23.144Z,102236.04
2018-09-05T16:49:51.784Z,102239.55
2018-09-05T16:52:21.108Z,102234.47
2018-09-05T16:54:49.753Z,102244.97
2018-09-05T16:57:18.438Z,102243.30
2018-09-05T16:59:47.089Z,102238.33
2018-09-05T17:02:15.861Z,102239.55
2018-09-05T17:04:44.520Z,102234.58
2018-09-05T17:07:13.188Z,102238.00
2018-09-05T17:09:41.863Z,102235.58
2018-09-05T17:12:10.529Z,102240.03
2018-09-05T17:14:39.319Z,102230.95
2018-09-05T17:17:08.039Z,102246.56
2018-09-05T17:19:36.751Z,102238.33
2018-09-05T17:22:05.468Z,102237.95
2018-09-05T17:24:34.232Z,102241.33
2018-09-05T17:27:02.921Z,102237.95
2018-09-05T17:29:31.641Z,102237.06
2018-09-05T17:32:00.351Z,102238.23
2018-09-05T17:34:29.228Z,102246.04
2018-09-05T17:36:57.913Z,102252.80
2018-09-05T17:39:26.615Z,102240.65
2018-09-05T17:41:55.383Z,102237.23
2018-09-05T17:44:24.106Z,102244.89
2018-09-05T17:46:52.804Z,102239.97
2018-09-05T17:49:21.565Z,102240.72
2018-09-05T17:51:50.319Z,102240.81
2018-09-05T17:54:19.059Z,102238.52
2018-09-05T17:56:47.843Z,102245.14
2018-09-05T17:59:16.588Z,102251.47
2018-09-05T18:01:45.386Z,102241.76
2018-09-05T18:04:14.108Z,102241.65
2018-09-05T18:06:42.835Z,102239.89
2018-09-05T18:09:12.084Z,102239.22
2018-09-05T18:11:40.867Z,102236.80
2018-09-05T18:14:09.594Z,102241.92
2018-09-05T18:16:38.336Z,102240.31
2018-09-05T18:19:07.064Z,102245.89
2018-09-05T18:21:35.764Z,102242.95
2018-09-05T18:24:04.641Z,102244.36
2018-09-05T18:26:33.324Z,102241.62
2018-09-05T18:29:02.004Z,102255.70
2018-09-05T18:31:30.695Z,102249.26
2018-09-05T18:33:59.459Z,102249.05
2018-09-05T18:36:28.118Z,102252.09
2018-09-05T18:38:56.821Z,102240.16
2018-09-05T18:41:25.518Z,102244.88
2018-09-05T18:43:54.216Z,102249.41
2018-09-05T18:46:22.901Z,102248.66
2018-09-05T18:48:51.602Z,102246.73
2018-09-05T18:51:20.356Z,102243.98
2018-09-05T18:53:49.024Z,102249.69
2018-09-05T18:56:17.743Z,102242.61
2018-09-05T18:58:46.476Z,102257.37
2018-09-05T19:01:15.156Z,102252.94
2018-09-05T19:03:43.828Z,102257.31
2018-09-05T19:06:12.495Z,102264.64
2018-09-05T19:08:41.179Z,102260.56
2018-09-05T19:11:09.876Z,102265.55
2018-09-05T19:13:38.556Z,102253.48
2018-09-05T19:16:07.250Z,102256.29
2018-09-05T19:18:35.949Z,102263.05
2018-09-05T19:21:04.685Z,102260.29
2018-09-05T19:23:33.989Z,102260.92
2018-09-05T19:26:02.720Z,102268.17
2018-09-05T19:28:31.402Z,102271.44
2018-09-05T19:31:00.203Z,102273.68
2018-09-05T19:33:28.917Z,102271.77
2018-09-05T19:35:57.584Z,102275.99
2018-09-05T19:38:26.250Z,102280.97
2018-09-05T19:40:54.921Z,102291.22
2018-09-05T19:43:23.628Z,102290.52
2018-09-05T19:45:52.311Z,102290.22
2018-09-05T19:48:20.984Z,102287.28
2018-09-05T19:50:49.687Z,102293.48
2018-09-05T19:53:18.375Z,102296.22
2018-09-05T19:55:47.074Z,102292.78
2018-09-05T19:58:15.764Z,102300.00
2018-09-05T20:00:44.466Z,102293.97
2018-09-05T20:03:13.121Z,102293.73
2018-09-05T20:05:41.909Z,102292.56
2018-09-05T20:08:10.581Z,102293.98
2018-09-05T20:10:39.232Z,102287.09
2018-09-05T20:13:08.334Z,102285.38
2018-09-05T20:15:37.404Z,102284.22
2018-09-05T20:18:06.284Z,102285.63
2018-09-05T20:20:35.073Z,102284.47
2018-09-05T20:23:03.771Z,102286.41
2018-09-05T20:25:32.593Z,102290.31
2018-09-05T20:28:01.273Z,102288.38
2018-09-05T20:30:30.836Z,102287.22
2018-09-05T20:32:59.596Z,102283.80
2018-09-05T20:35:28.215Z,102292.25
2018-09-05T20:37:56.905Z,102283.19
2018-09-05T20:40:25.581Z,102283.34
2018-09-05T20:42:54.243Z,102288.70
2018-09-05T20:45:22.952Z,102284.45
2018-09-05T20:47:51.618Z,102285.00
2018-09-05T20:50:20.417Z,102286.31
2018-09-05T20:52:49.140Z,102278.93
2018-09-05T20:55:17.812Z,102280.25
2018-09-05T20:57:46.489Z,102283.03
2018-09-05T21:00:15.160Z,102283.12
2018-09-05T21:02:43.828Z,102283.68
2018-09-05T21:05:12.511Z,102287.33
2018-09-05T21:07:41.223Z,102291.98
2018-09-05T21:10:09.938Z,102298.92
2018-09-05T21:12:38.648Z,102298.30
2018-09-05T21:15:07.396Z,102294.05
2018-09-05T21:17:36.102Z,102298.84
2018-09-05T21:20:05.007Z,102300.63
2018-09-05T21:22:33.932Z,102306.34
2018-09-05T21:25:02.658Z,102304.11
2018-09-05T21:27:32.093Z,102292.02
2018-09-05T21:30:03.044Z,102302.39
2018-09-05T21:32:31.860Z,102306.59
2018-09-05T21:35:00.695Z,102303.66
2018-09-05T21:37:29.438Z,102310.34
2018-09-05T21:39:58.135Z,102310.80
2018-09-05T21:42:27.002Z,102311.34
2018-09-05T21:44:55.677Z,102314.52
2018-09-05T21:47:24.425Z,102323.88
2018-09-05T21:49:53.110Z,102318.22
2018-09-05T21:52:21.923Z,102315.22
2018-09-05T21:54:50.576Z,102310.87
2018-09-05T21:57:21.949Z,102311.02
2018-09-05T21:59:50.603Z,102307.92
2018-09-05T22:02:19.267Z,102311.92
2018-09-05T22:04:48.000Z,102315.50
2018-09-05T22:07:17.092Z,102314.39
2018-09-05T22:09:45.794Z,102320.14
2018-09-05T22:12:14.508Z,102325.46
2018-09-05T22:14:43.185Z,102318.97
2018-09-05T22:17:12.144Z,102318.56
2018-09-05T22:19:40.817Z,102319.11
2018-09-05T22:22:09.511Z,102312.13
2018-09-05T22:24:38.179Z,102315.71
2018-09-05T22:27:06.882Z,102310.59
2018-09-05T22:29:35.537Z,102317.17
2018-09-05T22:32:04.270Z,102310.19
2018-09-05T22:34:32.896Z,102307.10
2018-09-05T22:37:01.624Z,102310.19
2018-09-05T22:39:30.287Z,102305.78
2018-09-05T22:41:58.954Z,102305.78
2018-09-05T22:44:38.496Z,102305.84
2018-09-05T22:47:18.120Z,102303.61
2018-09-05T22:50:03.050Z,102308.47
2018-09-05T22:52:55.393Z,102299.04
2018-09-05T22:57:44.419Z,102299.58
2018-09-05T23:00:24.115Z,102301.59
2018-09-05T23:07:14.852Z,102293.30
2018-09-05T23:09:54.556Z,102297.38
2018-09-05T23:14:41.189Z,102291.72
2018-09-05T23:17:40.681Z,102292.66
2018-09-05T23:21:20.860Z,102293.20
2018-09-05T23:23:57.909Z,102297.16
2018-09-05T23:26:26.914Z,102292.80
2018-09-05T23:28:55.615Z,102297.98
2018-09-05T23:31:24.551Z,102291.94
2018-09-05T23:33:53.288Z,102288.31
2018-09-05T23:36:22.265Z,102289.62
2018-09-05T23:38:50.944Z,102290.41
2018-09-05T23:41:19.745Z,102288.27
2018-09-05T23:43:49.334Z,102277.73
2018-09-05T23:46:18.049Z,102279.42
2018-09-05T23:48:46.739Z,102268.59
2018-09-05T23:51:15.392Z,102272.48
2018-09-05T23:53:44.085Z,102269.13
2018-09-05T23:56:12.750Z,102268.99
2018-09-05T23:58:41.449Z,102271.99
